Time;durP1;ratioP1;P1;durP2;ratioP2;P2;SDS_P1;SDS_P2;PMS_P1;PMS_P2;Temp;Humidity;BMP_temperature;BMP_pressure;BME280_temperature;BME280_humidity;BME280_pressure;Samples;Min_cycle;Max_cycle;Signal;HPM_P1;HPM_P2
2023/02/05 00:01:40;;;;;;;9.77;4.70;;;6.30;99.90;;;;;;5033992;28;20178;-72
2023/02/05 00:04:05;;;;;;;5.53;3.87;;;6.20;99.90;;;;;;5034376;28;20410;-72
2023/02/05 00:06:31;;;;;;;5.87;4.27;;;6.20;99.90;;;;;;5034161;28;20207;-72
2023/02/05 00:08:57;;;;;;;7.30;4.10;;;6.20;99.90;;;;;;5034579;28;20189;-72
2023/02/05 00:11:23;;;;;;;9.73;5.27;;;6.30;99.90;;;;;;5034071;28;20167;-72
2023/02/05 00:13:48;;;;;;;7.00;4.10;;;6.30;99.90;;;;;;5034836;28;20184;-72
2023/02/05 00:16:17;;;;;;;6.50;3.90;;;6.30;99.90;;;;;;5033581;28;20478;-72
2023/02/05 00:18:44;;;;;;;8.00;3.70;;;6.30;99.90;;;;;;5033569;28;20294;-72
2023/02/05 00:21:10;;;;;;;8.03;3.50;;;6.40;99.90;;;;;;5033593;28;20422;-72
2023/02/05 00:23:37;;;;;;;4.60;3.33;;;6.30;99.90;;;;;;5033497;28;20778;-72
2023/02/05 00:26:04;;;;;;;4.10;2.73;;;6.20;99.90;;;;;;5033586;28;20445;-72
2023/02/05 00:28:34;;;;;;;7.60;3.57;;;6.20;99.90;;;;;;5033585;28;20408;-72
2023/02/05 00:31:05;;;;;;;3.93;3.03;;;6.20;99.90;;;;;;5033035;28;20402;-72
2023/02/05 00:33:31;;;;;;;8.90;3.57;;;6.30;99.90;;;;;;5033825;28;20994;-72
2023/02/05 00:35:56;;;;;;;6.40;3.50;;;6.30;99.90;;;;;;5033450;28;20465;-72
2023/02/05 00:38:22;;;;;;;5.90;3.57;;;6.40;99.90;;;;;;5033684;28;20526;-72
2023/02/05 00:40:47;;;;;;;5.90;4.03;;;6.50;99.90;;;;;;5033825;28;20605;-72
2023/02/05 00:43:13;;;;;;;8.77;3.77;;;6.50;99.90;;;;;;5033748;28;20164;-72
2023/02/05 00:45:38;;;;;;;7.23;4.00;;;6.40;99.90;;;;;;5032436;28;20199;-72
2023/02/05 00:48:04;;;;;;;4.70;4.07;;;6.40;99.90;;;;;;5034294;28;20200;-72
2023/02/05 00:50:30;;;;;;;5.60;3.93;;;6.30;99.90;;;;;;5039588;28;20180;-72
2023/02/05 00:52:56;;;;;;;6.13;3.37;;;6.20;99.90;;;;;;5039768;28;20221;-72
2023/02/05 00:55:22;;;;;;;7.50;4.27;;;6.20;99.90;;;;;;5039498;28;20478;-72
2023/02/05 00:57:48;;;;;;;5.73;3.40;;;6.20;99.90;;;;;;5039751;28;20157;-72
2023/02/05 01:00:14;;;;;;;6.07;4.30;;;6.30;99.90;;;;;;5039218;28;20417;-72
2023/02/05 01:02:40;;;;;;;8.33;6.10;;;6.30;99.90;;;;;;5038156;28;20634;-72
2023/02/05 01:05:06;;;;;;;7.10;4.10;;;6.10;99.90;;;;;;5038423;28;20418;-72
2023/02/05 01:07:31;;;;;;;6.20;5.03;;;6.20;99.90;;;;;;5039292;28;20287;-72
2023/02/05 01:09:57;;;;;;;9.17;5.80;;;6.30;99.90;;;;;;5039287;28;20405;-72
2023/02/05 01:12:23;;;;;;;9.10;5.27;;;6.30;99.90;;;;;;5039383;28;20547;-72
2023/02/05 01:14:49;;;;;;;10.53;6.30;;;6.30;99.90;;;;;;5039268;28;20168;-72
2023/02/05 01:17:14;;;;;;;8.67;5.40;;;6.30;99.90;;;;;;5040114;28;20465;-72
2023/02/05 01:19:40;;;;;;;7.43;4.30;;;6.30;99.90;;;;;;5039057;28;20167;-72
2023/02/05 01:22:06;;;;;;;7.87;4.70;;;6.30;99.90;;;;;;5039470;28;20167;-72
2023/02/05 01:24:32;;;;;;;5.00;4.30;;;6.30;99.90;;;;;;5037986;28;20177;-72
2023/02/05 01:26:58;;;;;;;7.97;4.50;;;6.30;99.90;;;;;;5039073;28;20546;-72
2023/02/05 01:29:26;;;;;;;10.87;4.80;;;6.30;99.90;;;;;;5039782;28;20246;-72
2023/02/05 01:31:52;;;;;;;8.40;5.90;;;6.20;99.90;;;;;;5039142;28;20403;-72
2023/02/05 01:34:18;;;;;;;7.30;5.17;;;6.10;99.90;;;;;;5039324;28;20947;-72
2023/02/05 01:36:44;;;;;;;8.03;5.77;;;6.10;99.90;;;;;;5041521;28;20444;-72
2023/02/05 01:39:09;;;;;;;8.20;5.73;;;6.10;99.90;;;;;;5039106;28;20182;-72
2023/02/05 01:41:35;;;;;;;8.93;6.10;;;6.20;99.90;;;;;;5039086;28;20168;-72
2023/02/05 01:44:23;;;;;;;13.70;7.00;;;6.20;99.90;;;;;;5039315;28;20169;-72
2023/02/05 01:46:55;;;;;;;11.50;5.80;;;6.20;99.90;;;;;;5037911;28;20449;-72
2023/02/05 01:49:36;;;;;;;10.57;6.50;;;6.10;99.90;;;;;;5039142;28;20387;-72
2023/02/05 01:52:12;;;;;;;10.63;6.37;;;6.00;99.90;;;;;;5039289;28;20394;-72
2023/02/05 01:54:41;;;;;;;7.90;5.40;;;6.00;99.90;;;;;;5039088;28;20388;-72
2023/02/05 01:57:13;;;;;;;10.33;6.93;;;6.00;99.90;;;;;;5038477;28;20565;-72
2023/02/05 01:59:40;;;;;;;6.93;5.60;;;6.00;99.90;;;;;;5038208;28;20900;-71
2023/02/05 02:02:06;;;;;;;10.60;7.50;;;5.90;99.90;;;;;;5035319;28;20406;-72
2023/02/05 02:04:40;;;;;;;8.80;7.03;;;5.90;99.90;;;;;;5035711;28;20476;-72
2023/02/05 02:07:07;;;;;;;11.87;7.53;;;5.90;99.90;;;;;;5035627;28;20815;-71
2023/02/05 02:09:34;;;;;;;11.77;7.87;;;5.90;99.90;;;;;;5035906;28;20408;-72
2023/02/05 02:12:01;;;;;;;9.10;6.77;;;6.00;99.90;;;;;;5035992;28;20411;-72
2023/02/05 02:14:29;;;;;;;12.97;7.87;;;5.90;99.90;;;;;;5035570;28;20407;-71
2023/02/05 02:16:56;;;;;;;12.70;8.80;;;5.90;99.90;;;;;;5035129;28;20959;-72
2023/02/05 02:19:30;;;;;;;14.50;8.00;;;5.80;99.90;;;;;;5035145;28;20418;-72
2023/02/05 02:22:11;;;;;;;11.33;8.73;;;5.80;99.90;;;;;;5035806;28;20393;-72
2023/02/05 02:24:55;;;;;;;14.50;8.27;;;5.80;99.90;;;;;;5035662;28;20407;-72
2023/02/05 02:27:51;;;;;;;9.27;7.20;;;5.80;99.90;;;;;;5035414;28;20967;-72
2023/02/05 02:30:25;;;;;;;10.37;8.07;;;5.70;99.90;;;;;;5035312;28;20383;-72
2023/02/05 02:33:07;;;;;;;11.63;8.77;;;5.70;99.90;;;;;;5035053;28;20382;-72
2023/02/05 02:35:38;;;;;;;16.07;8.53;;;5.70;99.90;;;;;;5035459;28;20422;-71
2023/02/05 02:38:28;;;;;;;13.40;9.17;;;5.60;99.90;;;;;;5035095;28;20394;-72
2023/02/05 02:41:00;;;;;;;12.90;7.77;;;5.50;99.90;;;;;;5035076;28;20409;-72
2023/02/05 02:43:29;;;;;;;9.90;8.03;;;5.50;99.90;;;;;;5035338;28;20418;-72
2023/02/05 02:46:00;;;;;;;14.43;8.40;;;5.60;99.90;;;;;;5033944;28;20470;-72
2023/02/05 02:48:29;;;;;;;14.40;7.90;;;5.60;99.90;;;;;;5034960;28;20806;-72
2023/02/05 02:50:57;;;;;;;9.47;7.70;;;5.50;99.90;;;;;;5034889;28;20398;-71
2023/02/05 02:53:27;;;;;;;15.43;8.63;;;5.50;99.90;;;;;;5035201;28;20973;-72
2023/02/05 02:55:54;;;;;;;14.63;8.90;;;5.50;99.90;;;;;;5034578;28;20452;-72
2023/02/05 02:58:30;;;;;;;13.00;8.90;;;5.50;99.90;;;;;;5034771;28;20391;-72
2023/02/05 03:00:56;;;;;;;12.70;9.33;;;5.60;99.90;;;;;;5034515;28;20794;-72
2023/02/05 03:03:26;;;;;;;11.20;8.90;;;5.50;99.90;;;;;;5034576;28;20487;-72
2023/02/05 03:05:53;;;;;;;12.87;9.03;;;5.70;99.90;;;;;;5034719;28;20434;-72
2023/02/05 03:08:44;;;;;;;11.73;8.90;;;5.70;99.90;;;;;;5034899;28;20824;-72
2023/02/05 03:11:14;;;;;;;10.07;8.47;;;5.60;99.90;;;;;;5033037;28;20407;-71
2023/02/05 03:13:42;;;;;;;11.50;8.47;;;5.60;99.90;;;;;;5033774;28;20496;-72
2023/02/05 03:16:08;;;;;;;13.50;9.07;;;5.70;99.90;;;;;;5034322;28;20441;-72
2023/02/05 03:18:34;;;;;;;10.90;9.73;;;5.70;99.90;;;;;;5034854;28;20893;-71
2023/02/05 03:21:07;;;;;;;18.23;9.67;;;5.80;99.90;;;;;;5034729;28;20449;-72
2023/02/05 03:23:32;;;;;;;9.20;8.10;;;5.80;99.90;;;;;;5034635;28;20757;-72
2023/02/05 03:25:58;;;;;;;13.47;7.67;;;5.70;99.90;;;;;;5034521;28;20418;-72
2023/02/05 03:28:24;;;;;;;15.43;11.07;;;5.70;99.90;;;;;;5034548;28;20180;-72
2023/02/05 03:31:16;;;;;;;15.90;12.13;;;5.50;99.90;;;;;;5034223;28;20175;-71
2023/02/05 03:34:05;;;;;;;14.17;9.03;;;5.60;99.90;;;;;;5034841;28;20163;-72
2023/02/05 03:36:44;;;;;;;13.03;8.77;;;5.60;99.90;;;;;;5034246;28;20422;-72
2023/02/05 03:39:56;;;;;;;12.17;8.33;;;5.60;99.90;;;;;;5034899;28;20481;-72
2023/02/05 03:42:39;;;;;;;9.77;8.77;;;5.60;99.90;;;;;;5034257;28;20501;-72
2023/02/05 03:45:31;;;;;;;11.97;8.80;;;5.70;99.90;;;;;;5034676;28;20386;-72
2023/02/05 03:48:20;;;;;;;13.80;9.07;;;5.60;99.90;;;;;;5038872;28;20453;-72
2023/02/05 03:51:02;;;;;;;12.67;10.27;;;5.60;99.90;;;;;;5034130;28;20394;-72
2023/02/05 03:53:34;;;;;;;14.07;9.40;;;5.60;99.90;;;;;;5033876;28;20390;-71
2023/02/05 03:56:12;;;;;;;14.93;8.97;;;5.60;99.90;;;;;;5034022;28;20482;-72
2023/02/05 03:58:42;;;;;;;11.70;8.50;;;5.60;99.90;;;;;;5033592;28;20394;-71
2023/02/05 04:01:09;;;;;;;13.90;8.77;;;5.60;99.90;;;;;;5033580;28;20470;-72
2023/02/05 04:03:35;;;;;;;12.50;8.30;;;5.60;99.90;;;;;;5033433;28;20413;-71
2023/02/05 04:06:01;;;;;;;11.40;9.90;;;5.50;99.90;;;;;;5033403;28;20779;-71
2023/02/05 04:08:26;;;;;;;14.80;9.57;;;5.50;99.90;;;;;;5033429;28;20171;-72
2023/02/05 04:10:52;;;;;;;11.33;7.67;;;5.40;99.90;;;;;;5032248;28;20168;-71
2023/02/05 04:13:17;;;;;;;10.17;7.90;;;5.30;99.90;;;;;;5033446;28;20194;-71
2023/02/05 04:15:43;;;;;;;11.90;8.07;;;5.30;99.90;;;;;;5032094;28;20245;-72
2023/02/05 04:18:08;;;;;;;13.23;8.43;;;5.30;99.90;;;;;;5033099;28;20211;-71
2023/02/05 04:20:34;;;;;;;11.40;7.90;;;5.20;99.90;;;;;;5033586;28;20185;-71
2023/02/05 04:22:59;;;;;;;9.10;7.80;;;5.10;99.90;;;;;;5033190;28;20163;-71
2023/02/05 04:25:25;;;;;;;11.37;8.97;;;5.10;99.90;;;;;;5033213;28;20167;-71
2023/02/05 04:27:52;;;;;;;12.97;8.40;;;5.10;99.90;;;;;;5031871;28;20744;-71
2023/02/05 04:30:18;;;;;;;10.33;7.20;;;4.90;99.90;;;;;;5033713;28;20163;-71
2023/02/05 04:32:43;;;;;;;16.00;8.23;;;4.80;99.90;;;;;;5032915;28;20773;-71
2023/02/05 04:35:09;;;;;;;14.50;8.47;;;4.80;99.90;;;;;;5033398;28;20573;-71
2023/02/05 04:37:34;;;;;;;11.60;7.70;;;4.80;99.90;;;;;;5033788;28;20607;-71
2023/02/05 04:40:00;;;;;;;12.27;7.47;;;4.80;99.90;;;;;;5033105;28;20284;-72
2023/02/05 04:42:25;;;;;;;14.13;7.83;;;4.70;99.90;;;;;;5032980;28;20302;-71
2023/02/05 04:44:53;;;;;;;10.87;8.00;;;4.60;99.90;;;;;;5033058;28;20175;-71
2023/02/05 04:47:18;;;;;;;12.47;7.23;;;4.60;99.90;;;;;;5030801;28;20306;-72
2023/02/05 04:49:44;;;;;;;13.90;7.90;;;4.60;99.90;;;;;;5032743;28;20541;-71
2023/02/05 04:52:09;;;;;;;10.97;8.90;;;4.50;99.90;;;;;;5032937;28;20534;-71
2023/02/05 04:54:38;;;;;;;14.03;9.13;;;4.50;99.90;;;;;;5033217;28;20614;-70
2023/02/05 04:57:03;;;;;;;13.77;9.40;;;4.50;99.90;;;;;;5053503;23;20327;-71
2023/02/05 04:59:30;;;;;;;9.20;6.80;;;4.40;99.90;;;;;;5048255;28;21058;-71
2023/02/05 05:01:56;;;;;;;13.10;8.23;;;4.40;99.90;;;;;;5048301;28;20199;-71
2023/02/05 05:04:22;;;;;;;11.70;7.67;;;4.50;99.90;;;;;;5033746;28;20822;-71
2023/02/05 05:06:47;;;;;;;13.90;7.93;;;4.50;99.90;;;;;;5033284;28;20485;-71
2023/02/05 05:09:13;;;;;;;8.57;7.77;;;4.40;99.90;;;;;;5034137;28;20186;-71
2023/02/05 05:11:39;;;;;;;14.83;8.30;;;4.30;99.90;;;;;;5032929;28;20203;-70
2023/02/05 05:14:04;;;;;;;11.07;7.37;;;4.40;99.90;;;;;;5032949;28;20213;-70
2023/02/05 05:16:30;;;;;;;9.83;7.03;;;4.50;99.90;;;;;;5033364;28;20183;-71
2023/02/05 05:18:55;;;;;;;12.83;7.13;;;4.60;99.90;;;;;;5033127;28;20163;-72
2023/02/05 05:21:21;;;;;;;12.93;7.07;;;4.70;99.90;;;;;;5033064;28;20585;-71
2023/02/05 05:23:47;;;;;;;11.03;6.63;;;4.70;99.90;;;;;;5033797;28;20187;-72
2023/02/05 05:26:12;;;;;;;11.83;8.27;;;4.80;99.90;;;;;;5033293;28;20199;-72
2023/02/05 05:28:38;;;;;;;14.10;8.43;;;4.70;99.90;;;;;;5032307;28;20225;-71
2023/02/05 05:31:13;;;;;;;9.60;7.80;;;4.60;99.90;;;;;;5033567;28;20294;-71
2023/02/05 05:33:39;;;;;;;10.67;7.60;;;4.70;99.90;;;;;;5031620;28;20171;-70
2023/02/05 05:36:05;;;;;;;11.67;6.33;;;4.80;99.90;;;;;;5035040;28;20910;-70
2023/02/05 05:38:31;;;;;;;12.90;7.70;;;4.80;99.90;;;;;;5030555;28;20164;-71
2023/02/05 05:43:46;;;;;;;10.40;7.97;;;4.80;99.90;;;;;;5017622;28;20165;-71
2023/02/05 05:46:14;;;;;;;13.43;7.93;;;4.80;99.90;;;;;;5017491;28;20426;-70
2023/02/05 05:48:40;;;;;;;13.57;7.77;;;4.70;99.90;;;;;;5026980;28;20804;-70
2023/02/05 05:51:06;;;;;;;11.80;7.83;;;4.70;99.90;;;;;;5037023;28;20434;-71
2023/02/05 05:53:31;;;;;;;18.47;9.50;;;4.70;99.90;;;;;;5037071;28;20484;-71
2023/02/05 05:55:57;;;;;;;15.60;8.00;;;4.60;99.90;;;;;;5037221;28;20163;-71
2023/02/05 05:58:23;;;;;;;13.03;9.13;;;4.70;99.90;;;;;;5035782;28;20172;-71
2023/02/05 06:00:49;;;;;;;12.30;8.60;;;4.80;99.90;;;;;;5037535;28;20167;-70
2023/02/05 06:03:15;;;;;;;15.53;7.90;;;4.90;99.90;;;;;;5036580;28;20172;-70
2023/02/05 06:05:41;;;;;;;10.93;7.10;;;4.80;99.90;;;;;;5033727;28;20168;-71
2023/02/05 06:08:07;;;;;;;13.17;8.03;;;4.90;99.90;;;;;;5015043;28;20465;-71
2023/02/05 06:10:32;;;;;;;13.53;8.63;;;4.80;99.90;;;;;;5016737;28;20168;-71
2023/02/05 06:13:01;;;;;;;11.17;7.80;;;4.90;99.90;;;;;;5019630;28;20164;-72
2023/02/05 06:15:27;;;;;;;15.83;10.43;;;4.80;99.90;;;;;;5036653;28;20168;-71
2023/02/05 06:17:52;;;;;;;13.87;10.17;;;4.90;99.90;;;;;;5035470;28;20430;-70
2023/02/05 06:20:18;;;;;;;11.50;9.33;;;4.90;99.90;;;;;;5037602;28;20187;-71
2023/02/05 06:22:43;;;;;;;11.83;9.43;;;4.90;99.90;;;;;;5037234;28;20171;-72
2023/02/05 06:25:09;;;;;;;12.40;9.70;;;4.90;99.90;;;;;;5036989;28;20260;-71
2023/02/05 06:27:34;;;;;;;13.07;9.27;;;4.90;99.90;;;;;;5036882;28;20577;-71
2023/02/05 06:30:00;;;;;;;14.60;10.70;;;4.90;99.90;;;;;;5037227;28;20171;-70
2023/02/05 06:32:26;;;;;;;12.80;9.27;;;4.80;99.90;;;;;;5036927;28;20653;-71
2023/02/05 06:34:51;;;;;;;13.20;10.20;;;4.80;99.90;;;;;;5038215;28;20182;-71
2023/02/05 06:37:17;;;;;;;15.43;11.50;;;4.90;99.90;;;;;;5040771;28;20191;-71
2023/02/05 06:39:43;;;;;;;12.37;9.90;;;4.90;99.90;;;;;;5039763;28;20168;-71
2023/02/05 06:42:09;;;;;;;10.87;9.37;;;5.00;99.90;;;;;;5039452;28;20216;-71
2023/02/05 06:44:34;;;;;;;10.33;8.97;;;4.90;99.90;;;;;;5042790;28;20166;-70
2023/02/05 06:47:01;;;;;;;13.17;9.73;;;5.00;99.90;;;;;;5053129;28;20453;-71
2023/02/05 06:49:27;;;;;;;13.40;9.87;;;5.00;99.90;;;;;;5054818;28;20159;-71
2023/02/05 06:51:52;;;;;;;10.73;8.90;;;5.00;99.90;;;;;;5057503;28;20476;-71
2023/02/05 06:54:18;;;;;;;13.93;9.53;;;5.00;99.90;;;;;;5057018;28;20424;-71
2023/02/05 06:56:44;;;;;;;11.83;9.97;;;4.90;99.90;;;;;;5055872;28;20206;-71
2023/02/05 06:59:09;;;;;;;12.60;9.10;;;5.00;99.90;;;;;;5056485;28;20179;-71
2023/02/05 07:01:35;;;;;;;8.97;8.03;;;5.00;99.90;;;;;;5056782;28;20171;-71
2023/02/05 07:04:01;;;;;;;11.03;8.47;;;5.20;99.90;;;;;;5057010;28;20167;-72
2023/02/05 07:06:27;;;;;;;12.83;8.90;;;5.30;99.90;;;;;;5055253;28;20191;-72
2023/02/05 07:08:53;;;;;;;12.33;7.30;;;5.30;99.90;;;;;;5046651;28;20670;-71
2023/02/05 07:11:20;;;;;;;8.60;7.80;;;5.40;99.90;;;;;;5036139;28;20413;-72
2023/02/05 07:13:46;;;;;;;10.63;8.40;;;5.40;99.90;;;;;;5036433;28;20433;-71
2023/02/05 07:16:12;;;;;;;14.30;9.27;;;5.40;99.90;;;;;;5035551;28;20418;-71
2023/02/05 07:18:38;;;;;;;15.27;9.13;;;5.50;99.90;;;;;;5034613;28;20766;-71
2023/02/05 07:21:06;;;;;;;12.47;7.57;;;5.60;99.90;;;;;;5035418;28;20167;-71
2023/02/05 07:23:31;;;;;;;10.67;8.90;;;5.60;99.90;;;;;;5035840;28;20214;-71
2023/02/05 07:25:57;;;;;;;17.23;10.33;;;5.60;99.90;;;;;;5035990;28;20410;-71
2023/02/05 07:28:23;;;;;;;18.97;11.10;;;5.60;99.90;;;;;;5035122;28;20163;-72
2023/02/05 07:30:48;;;;;;;14.77;9.90;;;5.60;99.90;;;;;;5033408;28;20258;-71
2023/02/05 07:33:15;;;;;;;13.43;10.23;;;5.50;99.90;;;;;;5034801;28;20174;-71
2023/02/05 07:35:41;;;;;;;16.47;11.23;;;5.50;99.90;;;;;;5032675;28;20225;-71
2023/02/05 07:38:06;;;;;;;18.83;11.50;;;5.60;99.90;;;;;;5019465;28;20831;-70
2023/02/05 07:40:32;;;;;;;15.37;9.37;;;5.70;99.90;;;;;;5014362;28;20540;-69
2023/02/05 07:42:58;;;;;;;15.57;10.60;;;5.70;99.90;;;;;;5014595;28;20718;-71
2023/02/05 07:45:23;;;;;;;13.93;10.03;;;5.80;99.90;;;;;;5014521;28;20189;-71
2023/02/05 07:47:49;;;;;;;13.80;8.80;;;5.90;99.90;;;;;;5015346;28;20550;-71
2023/02/05 07:50:16;;;;;;;11.33;8.40;;;5.90;99.90;;;;;;5032408;28;20186;-71
2023/02/05 07:52:42;;;;;;;13.00;8.23;;;5.80;99.90;;;;;;5035991;28;20172;-71
2023/02/05 07:55:08;;;;;;;11.90;9.27;;;5.80;99.90;;;;;;5032667;28;20414;-71
2023/02/05 07:57:33;;;;;;;9.73;7.70;;;5.70;99.90;;;;;;5033999;28;20215;-70
2023/02/05 07:59:59;;;;;;;10.37;8.03;;;5.60;99.90;;;;;;5033253;28;20789;-71
2023/02/05 08:02:25;;;;;;;15.43;8.27;;;5.70;99.90;;;;;;5033189;28;20187;-71
2023/02/05 08:04:57;;;;;;;10.53;8.03;;;5.70;99.90;;;;;;5034837;28;20251;-71
2023/02/05 08:07:22;;;;;;;11.20;8.40;;;5.80;99.90;;;;;;5032876;28;20558;-71
2023/02/05 08:09:48;;;;;;;10.37;7.77;;;5.80;99.90;;;;;;5033171;28;20442;-70
2023/02/05 08:12:13;;;;;;;8.40;7.53;;;5.80;99.90;;;;;;5033840;28;20582;-72
2023/02/05 08:14:39;;;;;;;10.27;8.20;;;5.90;99.90;;;;;;5033819;28;20578;-70
2023/02/05 08:17:05;;;;;;;12.63;8.00;;;6.00;99.90;;;;;;5015604;28;20562;-71
2023/02/05 08:19:30;;;;;;;12.40;8.50;;;6.00;99.90;;;;;;5013939;28;20611;-71
2023/02/05 08:21:56;;;;;;;12.20;8.80;;;6.10;99.90;;;;;;5013516;28;20413;-71
2023/02/05 08:24:21;;;;;;;9.33;7.33;;;6.10;99.90;;;;;;5013289;28;20179;-72
2023/02/05 08:26:47;;;;;;;11.97;8.30;;;6.10;99.90;;;;;;5014320;28;20201;-71
2023/02/05 08:29:13;;;;;;;10.97;8.47;;;6.20;99.90;;;;;;5014805;28;20164;-71
2023/02/05 08:31:38;;;;;;;11.77;7.50;;;6.30;99.90;;;;;;5013898;28;20172;-71
2023/02/05 08:34:04;;;;;;;12.07;8.20;;;6.30;99.90;;;;;;5012998;28;20656;-71
2023/02/05 08:36:30;;;;;;;10.27;7.90;;;6.40;99.90;;;;;;5013917;28;20256;-72
2023/02/05 08:38:55;;;;;;;13.70;7.60;;;6.50;99.90;;;;;;5014560;28;20176;-71
2023/02/05 08:41:21;;;;;;;10.47;7.57;;;6.40;99.90;;;;;;5013629;28;20231;-71
2023/02/05 08:43:48;;;;;;;11.57;7.50;;;6.50;99.90;;;;;;5013826;28;20170;-71
2023/02/05 08:46:18;;;;;;;11.33;7.83;;;6.50;99.90;;;;;;5013538;28;20192;-70
2023/02/05 08:48:44;;;;;;;11.73;7.33;;;6.50;99.90;;;;;;5012436;28;20435;-71
2023/02/05 08:51:11;;;;;;;9.27;6.80;;;6.50;99.90;;;;;;5028806;28;20483;-70
2023/02/05 08:53:37;;;;;;;12.20;7.47;;;6.50;99.90;;;;;;5031793;28;20438;-71
2023/02/05 08:56:04;;;;;;;15.83;8.10;;;6.40;99.90;;;;;;5032960;28;20458;-72
2023/02/05 08:58:30;;;;;;;11.43;7.20;;;6.50;99.90;;;;;;5033160;28;20148;-71
2023/02/05 09:01:01;;;;;;;11.60;7.33;;;6.50;99.90;;;;;;5033136;28;20492;-71
2023/02/05 09:03:27;;;;;;;13.30;9.07;;;6.60;99.90;;;;;;5033311;28;20163;-72
2023/02/05 09:05:52;;;;;;;15.10;8.90;;;6.50;99.90;;;;;;5033809;28;20429;-71
2023/02/05 09:08:19;;;;;;;10.10;8.67;;;6.60;99.90;;;;;;5033543;28;20719;-71
2023/02/05 09:10:44;;;;;;;8.37;7.50;;;6.80;99.90;;;;;;5037957;28;20164;-72
2023/02/05 09:13:10;;;;;;;11.83;9.30;;;6.90;99.90;;;;;;5039398;28;20436;-72
2023/02/05 09:15:41;;;;;;;11.73;9.30;;;7.10;99.90;;;;;;5036998;28;20218;-71
2023/02/05 09:18:06;;;;;;;10.10;8.30;;;7.00;99.90;;;;;;5039226;28;20199;-71
2023/02/05 09:20:32;;;;;;;10.27;8.60;;;7.00;99.90;;;;;;5037905;28;20407;-72
2023/02/05 09:22:58;;;;;;;19.17;9.53;;;7.00;99.90;;;;;;5037921;28;20176;-72
2023/02/05 09:25:23;;;;;;;16.30;9.30;;;6.80;99.90;;;;;;5037472;28;20636;-72
2023/02/05 09:27:49;;;;;;;13.27;8.93;;;6.90;99.90;;;;;;5037284;28;20276;-72
2023/02/05 09:30:14;;;;;;;13.67;9.37;;;7.00;99.90;;;;;;5038085;28;20177;-72
2023/02/05 09:32:40;;;;;;;13.17;8.43;;;6.90;99.90;;;;;;5035273;28;20173;-72
2023/02/05 09:35:05;;;;;;;12.20;8.20;;;7.00;99.90;;;;;;5037824;28;20635;-72
2023/02/05 09:37:31;;;;;;;14.83;10.30;;;7.10;99.90;;;;;;5037233;28;20194;-71
2023/02/05 09:39:57;;;;;;;10.23;9.17;;;7.10;99.90;;;;;;5025385;28;20173;-71
2023/02/05 09:42:37;;;;;;;18.77;9.50;;;7.10;99.90;;;;;;5017295;28;20169;-71
2023/02/05 09:45:12;;;;;;;16.60;10.30;;;7.20;99.90;;;;;;5017700;28;20237;-71
2023/02/05 09:47:48;;;;;;;11.97;8.13;;;7.20;99.90;;;;;;5017015;28;20456;-72
2023/02/05 09:50:26;;;;;;;9.20;7.90;;;7.20;99.90;;;;;;5021787;28;20419;-72
2023/02/05 09:52:58;;;;;;;19.50;10.07;;;7.10;99.90;;;;;;5037133;28;20392;-72
2023/02/05 09:55:28;;;;;;;11.07;8.40;;;7.10;99.90;;;;;;5036397;28;20866;-72
2023/02/05 09:57:59;;;;;;;7.80;7.00;;;7.10;99.90;;;;;;5036140;28;21093;-72
2023/02/05 10:00:33;;;;;;;9.30;7.33;;;7.10;99.90;;;;;;5035705;28;20426;-72
2023/02/05 10:03:10;;;;;;;13.83;8.77;;;7.10;99.90;;;;;;5035476;28;20413;-72
2023/02/05 10:05:56;;;;;;;10.90;7.00;;;7.20;99.90;;;;;;5034374;28;20905;-72
2023/02/05 10:08:32;;;;;;;11.30;7.93;;;7.10;99.90;;;;;;5015871;28;20443;-72
2023/02/05 10:11:00;;;;;;;11.93;8.20;;;7.10;99.90;;;;;;5014808;28;20992;-71
2023/02/05 10:13:29;;;;;;;10.77;8.27;;;7.00;99.90;;;;;;5021994;28;20430;-72
2023/02/05 10:16:29;;;;;;;14.87;9.67;;;7.00;99.90;;;;;;5035576;28;20494;-71
2023/02/05 10:19:39;;;;;;;9.67;7.00;;;7.10;99.90;;;;;;5033905;28;20425;-72
2023/02/05 10:22:18;;;;;;;11.80;7.77;;;7.20;99.90;;;;;;5002007;28;20422;-72
2023/02/05 10:24:43;;;;;;;12.40;7.30;;;7.10;99.90;;;;;;5035474;28;20817;-72
2023/02/05 10:27:23;;;;;;;9.47;7.40;;;7.20;99.90;;;;;;5035744;28;20597;-72
2023/02/05 10:30:26;;;;;;;11.80;6.80;;;7.10;99.90;;;;;;5035712;28;20149;-72
2023/02/05 10:33:05;;;;;;;10.53;6.80;;;7.10;99.90;;;;;;5035954;28;20403;-71
2023/02/05 10:35:45;;;;;;;13.13;7.33;;;7.00;99.90;;;;;;5035462;28;20387;-72
2023/02/05 10:38:23;;;;;;;12.70;8.13;;;7.10;99.90;;;;;;5036097;28;20477;-72
2023/02/05 10:40:53;;;;;;;12.20;7.30;;;7.10;99.90;;;;;;5035209;28;20389;-72
2023/02/05 10:43:39;;;;;;;8.80;7.37;;;7.20;99.90;;;;;;5035453;28;20444;-72
2023/02/05 10:46:11;;;;;;;13.83;8.50;;;7.30;99.90;;;;;;5035423;28;20470;-72
2023/02/05 10:48:43;;;;;;;11.40;7.23;;;7.40;99.90;;;;;;5035629;28;20394;-73
2023/02/05 10:51:35;;;;;;;16.87;8.43;;;7.60;99.90;;;;;;5033484;28;21010;-72
2023/02/05 10:54:00;;;;;;;14.60;8.23;;;7.60;99.90;;;;;;5023236;28;20408;-73
2023/02/05 10:56:26;;;;;;;10.27;7.63;;;7.60;99.90;;;;;;5047989;22;20458;-73
2023/02/05 10:58:54;;;;;;;13.43;7.70;;;7.60;99.90;;;;;;5034436;28;20186;-72
2023/02/05 11:01:23;;;;;;;19.07;8.23;;;7.60;99.90;;;;;;5035165;28;20178;-72
2023/02/05 11:04:16;;;;;;;10.23;7.43;;;7.50;99.90;;;;;;5035136;28;20403;-72
2023/02/05 11:06:46;;;;;;;12.17;7.23;;;7.70;99.90;;;;;;5032921;28;20553;-72
2023/02/05 11:09:24;;;;;;;11.70;8.80;;;7.70;99.90;;;;;;5034541;28;20443;-72
2023/02/05 11:11:51;;;;;;;12.40;7.20;;;7.70;99.90;;;;;;5034336;28;20402;-72
2023/02/05 11:14:27;;;;;;;12.50;7.57;;;7.70;99.90;;;;;;5034511;28;20409;-73
2023/02/05 11:16:52;;;;;;;12.27;7.17;;;7.80;99.90;;;;;;5033253;28;20519;-73
2023/02/05 11:19:27;;;;;;;12.50;7.60;;;7.80;99.90;;;;;;5035008;28;20486;-73
2023/02/05 11:21:57;;;;;;;11.83;7.60;;;7.70;99.90;;;;;;5037175;28;20496;-73
2023/02/05 11:24:26;;;;;;;13.10;7.77;;;7.70;99.90;;;;;;5036421;28;20763;-73
2023/02/05 11:27:25;;;;;;;8.60;7.13;;;7.70;99.90;;;;;;5035972;28;20456;-73
2023/02/05 11:29:50;;;;;;;11.80;6.90;;;7.60;99.90;;;;;;5035857;28;20397;-73
2023/02/05 11:32:29;;;;;;;11.90;8.03;;;7.60;99.90;;;;;;5035937;28;20402;-73
2023/02/05 11:35:12;;;;;;;17.47;6.77;;;7.50;99.90;;;;;;5034717;28;20150;-73
2023/02/05 11:37:39;;;;;;;14.68;8.80;;;7.70;99.90;;;;;;5033842;28;20433;-75
2023/02/05 11:40:05;;;;;;;14.93;8.50;;;7.80;99.90;;;;;;5034067;28;20518;-74
2023/02/05 11:42:30;;;;;;;11.00;7.10;;;7.70;99.90;;;;;;5033961;28;20923;-74
2023/02/05 11:44:59;;;;;;;13.83;8.43;;;7.90;99.90;;;;;;5026001;28;20404;-74
2023/02/05 11:47:27;;;;;;;11.20;7.70;;;8.00;99.90;;;;;;5014124;28;20214;-74
2023/02/05 11:49:54;;;;;;;9.80;6.97;;;7.80;99.90;;;;;;5012922;28;20417;-74
2023/02/05 11:52:36;;;;;;;12.43;7.20;;;7.80;99.90;;;;;;5013516;28;20411;-74
2023/02/05 11:55:02;;;;;;;10.20;7.63;;;8.00;99.90;;;;;;5033588;28;20382;-73
2023/02/05 11:57:34;;;;;;;14.93;7.40;;;8.00;99.90;;;;;;5033522;28;20441;-74
2023/02/05 12:00:14;;;;;;;11.47;7.97;;;8.10;99.90;;;;;;5026402;28;20432;-75
2023/02/05 12:02:43;;;;;;;15.43;7.63;;;8.20;99.90;;;;;;5014288;28;20803;-75
2023/02/05 12:05:11;;;;;;;12.07;8.27;;;8.00;99.90;;;;;;5013895;28;20450;-75
2023/02/05 12:08:01;;;;;;;10.23;6.73;;;7.80;99.90;;;;;;5013308;28;20465;-76
2023/02/05 12:10:46;;;;;;;12.17;7.77;;;7.90;99.90;;;;;;5013956;28;20765;-75
2023/02/05 12:13:26;;;;;;;12.37;9.23;;;8.00;99.90;;;;;;5013725;28;20838;-73
2023/02/05 12:16:33;;;;;;;16.63;9.77;;;7.90;99.90;;;;;;5013742;28;20409;-73
2023/02/05 12:19:18;;;;;;;11.40;7.43;;;8.00;99.90;;;;;;5013807;28;21001;-74
2023/02/05 12:22:19;;;;;;;11.27;7.70;;;8.00;99.90;;;;;;5014018;28;20403;-74
2023/02/05 12:25:08;;;;;;;9.93;7.37;;;7.90;99.90;;;;;;4980857;28;20422;-73
2023/02/05 12:27:42;;;;;;;12.73;8.83;;;7.80;99.90;;;;;;4994257;28;20458;-73
2023/02/05 12:30:27;;;;;;;13.80;9.67;;;7.80;99.90;;;;;;4994155;28;20393;-74
2023/02/05 12:33:22;;;;;;;14.17;8.90;;;7.90;99.90;;;;;;4994216;28;20394;-74
2023/02/05 12:36:09;;;;;;;11.10;8.20;;;8.00;99.90;;;;;;4994136;28;20380;-75
2023/02/05 12:39:15;;;;;;;14.70;9.27;;;8.20;99.90;;;;;;4993630;28;20427;-74
2023/02/05 12:42:22;;;;;;;12.70;8.80;;;8.10;99.90;;;;;;4982584;28;20414;-74
2023/02/05 12:44:54;;;;;;;17.83;15.03;;;8.00;99.90;;;;;;4993245;28;20972;-74
2023/02/05 12:47:48;;;;;;;20.80;15.00;;;6.90;99.90;;;;;;4993882;28;20450;-74
2023/02/05 12:50:33;;;;;;;20.07;13.30;;;6.60;99.90;;;;;;4993916;28;20412;-73
2023/02/05 12:53:06;;;;;;;13.93;12.27;;;6.50;99.90;;;;;;5003464;28;20803;-73
2023/02/05 12:55:43;;;;;;;15.17;12.97;;;6.20;99.90;;;;;;5033113;28;20390;-74
2023/02/05 12:58:11;;;;;;;18.63;12.37;;;6.30;99.90;;;;;;5031510;28;20447;-74
2023/02/05 13:00:43;;;;;;;13.60;10.67;;;6.20;99.90;;;;;;5033100;28;20407;-74
2023/02/05 13:03:17;;;;;;;10.60;9.50;;;6.40;99.90;;;;;;5033399;28;20407;-74
2023/02/05 13:05:51;;;;;;;13.67;11.30;;;6.50;99.90;;;;;;5033226;28;20401;-74
2023/02/05 13:08:20;;;;;;;12.37;8.97;;;6.80;99.90;;;;;;5032453;28;20449;-74